DAL1738 KSLC-KPHX
Flight info
| Callsign | DAL1738 |
|---|---|
| Flight time | 1h 11m |
| Altitude | 35000 |
| Route | ARCHZ1 MLF CORKR TENTS BRUSR1 |
| Aircraft | A321/M-SDE3FGHIRWY/LB1 |
Departure
| Time | 2026-05-07 00:46 |
|---|---|
| Airport | Salt Lake City International Airport (KSLC) |
Arrival
| Time | 2026-05-07 01:57 |
|---|---|
| Airport | Phoenix Sky Harbor International Airport (KPHX) |
| Time | Latitude | Longitude | Altitude | Speed | Heading |
|---|---|---|---|---|---|
| 2026-05-07 00:26 | 40.78476 | -111.99048 | 4231 ft | 0 kts | 355° |
| 2026-05-07 00:38 | 40.78466 | -111.99047 | 4231 ft | 4 kts | 351° |
| 2026-05-07 00:38 | 40.78441 | -111.99037 | 4229 ft | 4 kts | 325° |
| 2026-05-07 00:38 | 40.78425 | -111.99013 | 4229 ft | 4 kts | 278° |
| 2026-05-07 00:38 | 40.78425 | -111.99003 | 4231 ft | 0 kts | 265° |
| 2026-05-07 00:41 | 40.78422 | -111.99039 | 4231 ft | 9 kts | 265° |
| 2026-05-07 00:41 | 40.78415 | -111.99143 | 4231 ft | 12 kts | 264° |
| 2026-05-07 00:41 | 40.78410 | -111.99254 | 4231 ft | 14 kts | 269° |
| 2026-05-07 00:41 | 40.78420 | -111.99379 | 4231 ft | 13 kts | 275° |
| 2026-05-07 00:42 | 40.78365 | -111.99432 | 4231 ft | 11 kts | 175° |
| 2026-05-07 00:42 | 40.78295 | -111.99423 | 4231 ft | 10 kts | 174° |
| 2026-05-07 00:42 | 40.78208 | -111.99413 | 4231 ft | 15 kts | 175° |
| 2026-05-07 00:42 | 40.78109 | -111.99407 | 4231 ft | 14 kts | 184° |
| 2026-05-07 00:43 | 40.78022 | -111.99433 | 4260 ft | 12 kts | 193° |
| 2026-05-07 00:43 | 40.77916 | -111.99434 | 4260 ft | 17 kts | 175° |
| 2026-05-07 00:43 | 40.77804 | -111.99421 | 4260 ft | 15 kts | 175° |
| 2026-05-07 00:43 | 40.77709 | -111.99409 | 4261 ft | 13 kts | 174° |
| 2026-05-07 00:44 | 40.77628 | -111.99400 | 4261 ft | 11 kts | 175° |
| 2026-05-07 00:44 | 40.77549 | -111.99402 | 4261 ft | 13 kts | 202° |
| 2026-05-07 00:44 | 40.77521 | -111.99492 | 4262 ft | 10 kts | 268° |
| 2026-05-07 00:44 | 40.77554 | -111.99549 | 4262 ft | 8 kts | 337° |
| 2026-05-07 00:45 | 40.77730 | -111.99574 | 4261 ft | 56 kts | 355° |
| 2026-05-07 00:45 | 40.78342 | -111.99647 | 4230 ft | 118 kts | 355° |
| 2026-05-07 00:45 | 40.79329 | -111.99764 | 4231 ft | 166 kts | 355° |
| 2026-05-07 00:45 | 40.80589 | -111.99916 | 4420 ft | 188 kts | 353° |
| 2026-05-07 00:46 | 40.81808 | -112.00266 | 5326 ft | 173 kts | 330° |
| 2026-05-07 00:46 | 40.82588 | -112.01438 | 5958 ft | 175 kts | 291° |
| 2026-05-07 00:46 | 40.82804 | -112.03093 | 6164 ft | 191 kts | 274° |
| 2026-05-07 00:46 | 40.82808 | -112.04923 | 6343 ft | 208 kts | 265° |
| 2026-05-07 00:47 | 40.82342 | -112.06819 | 6482 ft | 228 kts | 246° |
| 2026-05-07 00:47 | 40.81675 | -112.08840 | 6610 ft | 252 kts | 247° |
| 2026-05-07 00:47 | 40.80926 | -112.11054 | 6849 ft | 273 kts | 248° |
| 2026-05-07 00:47 | 40.80137 | -112.13366 | 7420 ft | 280 kts | 249° |
| 2026-05-07 00:48 | 40.79327 | -112.15742 | 8037 ft | 287 kts | 249° |
| 2026-05-07 00:48 | 40.78502 | -112.18166 | 8759 ft | 290 kts | 249° |
| 2026-05-07 00:48 | 40.77672 | -112.20608 | 9490 ft | 294 kts | 250° |
| 2026-05-07 00:48 | 40.76820 | -112.23077 | 10169 ft | 301 kts | 248° |
| 2026-05-07 00:49 | 40.75594 | -112.25413 | 10344 ft | 330 kts | 228° |
| 2026-05-07 00:49 | 40.73675 | -112.27253 | 10570 ft | 353 kts | 207° |
| 2026-05-07 00:49 | 40.71286 | -112.28174 | 11114 ft | 363 kts | 189° |
| 2026-05-07 00:49 | 40.68773 | -112.28670 | 11773 ft | 367 kts | 189° |
| 2026-05-07 00:50 | 40.66232 | -112.29179 | 12454 ft | 370 kts | 190° |
| 2026-05-07 00:50 | 40.63672 | -112.29700 | 13127 ft | 374 kts | 190° |
| 2026-05-07 00:50 | 40.61094 | -112.30229 | 13785 ft | 378 kts | 191° |
| 2026-05-07 00:50 | 40.58484 | -112.30765 | 14387 ft | 382 kts | 190° |
| 2026-05-07 00:51 | 40.55865 | -112.31424 | 14942 ft | 385 kts | 197° |
| 2026-05-07 00:51 | 40.53293 | -112.32460 | 15510 ft | 388 kts | 199° |
| 2026-05-07 00:51 | 40.50707 | -112.33520 | 16078 ft | 392 kts | 199° |
| 2026-05-07 00:51 | 40.48084 | -112.34598 | 16627 ft | 397 kts | 199° |
| 2026-05-07 00:52 | 40.45437 | -112.35687 | 17177 ft | 401 kts | 199° |
| 2026-05-07 00:52 | 40.42759 | -112.36786 | 17717 ft | 405 kts | 199° |
| 2026-05-07 00:52 | 40.40053 | -112.37891 | 18245 ft | 410 kts | 199° |
| 2026-05-07 00:52 | 40.37318 | -112.39006 | 18694 ft | 414 kts | 199° |
| 2026-05-07 00:53 | 40.34553 | -112.40129 | 19157 ft | 418 kts | 199° |
| 2026-05-07 00:53 | 40.31764 | -112.41261 | 19596 ft | 421 kts | 199° |
| 2026-05-07 00:53 | 40.29869 | -112.42030 | 19915 ft | 423 kts | 199° |
| 2026-05-07 00:53 | 40.27042 | -112.43180 | 20369 ft | 426 kts | 199° |
| 2026-05-07 00:54 | 40.24202 | -112.44335 | 20837 ft | 429 kts | 199° |
| 2026-05-07 00:54 | 40.21342 | -112.45495 | 21298 ft | 432 kts | 199° |
| 2026-05-07 00:54 | 40.18521 | -112.46715 | 21703 ft | 434 kts | 204° |
| 2026-05-07 00:54 | 40.15813 | -112.48460 | 22157 ft | 434 kts | 211° |
| 2026-05-07 00:55 | 40.13145 | -112.50351 | 22606 ft | 437 kts | 211° |
| 2026-05-07 00:55 | 40.10463 | -112.52249 | 23041 ft | 440 kts | 211° |
| 2026-05-07 00:55 | 40.07756 | -112.54161 | 23466 ft | 443 kts | 211° |
| 2026-05-07 00:55 | 40.05034 | -112.56079 | 23861 ft | 446 kts | 211° |
| 2026-05-07 00:56 | 40.02291 | -112.58003 | 24226 ft | 449 kts | 211° |
| 2026-05-07 00:56 | 39.99531 | -112.59937 | 24560 ft | 452 kts | 211° |
| 2026-05-07 00:56 | 39.96752 | -112.61882 | 24924 ft | 454 kts | 211° |
| 2026-05-07 00:56 | 39.93963 | -112.63832 | 25279 ft | 456 kts | 211° |
| 2026-05-07 00:57 | 39.91160 | -112.65794 | 25625 ft | 459 kts | 211° |
| 2026-05-07 00:57 | 39.88343 | -112.67766 | 25973 ft | 461 kts | 211° |
| 2026-05-07 00:57 | 39.85511 | -112.69744 | 26316 ft | 463 kts | 211° |
| 2026-05-07 00:57 | 39.82662 | -112.71729 | 26642 ft | 466 kts | 211° |
| 2026-05-07 00:58 | 39.79793 | -112.73725 | 26968 ft | 468 kts | 211° |
| 2026-05-07 00:58 | 39.76914 | -112.75728 | 27297 ft | 470 kts | 211° |
| 2026-05-07 00:58 | 39.74023 | -112.77740 | 27621 ft | 473 kts | 211° |
| 2026-05-07 00:58 | 39.71113 | -112.79751 | 27926 ft | 475 kts | 209° |
| 2026-05-07 00:59 | 39.64785 | -112.82392 | 28546 ft | 484 kts | 189° |
| 2026-05-07 00:59 | 39.61434 | -112.82909 | 28857 ft | 486 kts | 187° |
| 2026-05-07 00:59 | 39.58061 | -112.83403 | 29164 ft | 488 kts | 187° |
| 2026-05-07 01:00 | 39.54672 | -112.83902 | 29453 ft | 491 kts | 187° |
| 2026-05-07 01:00 | 39.51275 | -112.84406 | 29732 ft | 493 kts | 187° |
| 2026-05-07 01:00 | 39.47864 | -112.84915 | 30010 ft | 495 kts | 187° |
| 2026-05-07 01:00 | 39.44431 | -112.85427 | 30261 ft | 497 kts | 187° |
| 2026-05-07 01:01 | 39.40991 | -112.85938 | 30505 ft | 499 kts | 187° |
| 2026-05-07 01:01 | 39.37539 | -112.86450 | 30750 ft | 500 kts | 187° |
| 2026-05-07 01:01 | 39.34075 | -112.86966 | 30992 ft | 502 kts | 187° |
| 2026-05-07 01:01 | 39.30608 | -112.87484 | 31350 ft | 500 kts | 187° |
| 2026-05-07 01:02 | 39.27153 | -112.88000 | 31709 ft | 499 kts | 187° |
| 2026-05-07 01:02 | 39.23705 | -112.88511 | 32064 ft | 499 kts | 187° |
| 2026-05-07 01:02 | 39.20262 | -112.89021 | 32419 ft | 498 kts | 187° |
| 2026-05-07 01:02 | 39.16826 | -112.89528 | 32778 ft | 497 kts | 187° |
| 2026-05-07 01:03 | 39.13387 | -112.90031 | 33127 ft | 496 kts | 187° |
| 2026-05-07 01:03 | 39.10005 | -112.90525 | 33475 ft | 496 kts | 187° |
| 2026-05-07 01:03 | 39.06537 | -112.91034 | 33842 ft | 495 kts | 187° |
| 2026-05-07 01:03 | 39.03121 | -112.91540 | 34162 ft | 494 kts | 187° |
| 2026-05-07 01:04 | 38.99706 | -112.92045 | 34384 ft | 493 kts | 187° |
| 2026-05-07 01:04 | 38.96292 | -112.92551 | 34647 ft | 493 kts | 187° |
| 2026-05-07 01:04 | 38.92887 | -112.93056 | 34924 ft | 492 kts | 187° |
| 2026-05-07 01:04 | 38.89481 | -112.93556 | 35064 ft | 492 kts | 187° |
| 2026-05-07 01:05 | 38.86104 | -112.94047 | 35098 ft | 487 kts | 187° |
| 2026-05-07 01:05 | 38.79399 | -112.95022 | 35093 ft | 484 kts | 187° |
| 2026-05-07 01:06 | 38.72715 | -112.95997 | 35094 ft | 483 kts | 187° |
| 2026-05-07 01:06 | 38.66040 | -112.96973 | 35144 ft | 483 kts | 187° |
| 2026-05-07 01:07 | 38.59365 | -112.97949 | 35177 ft | 483 kts | 187° |
| 2026-05-07 01:07 | 38.52727 | -112.98912 | 35193 ft | 483 kts | 187° |
| 2026-05-07 01:08 | 38.46042 | -112.99878 | 35198 ft | 483 kts | 187° |
| 2026-05-07 01:08 | 38.39356 | -113.00836 | 35199 ft | 483 kts | 185° |
| 2026-05-07 01:09 | 38.32675 | -113.00409 | 35198 ft | 481 kts | 166° |
| 2026-05-07 01:09 | 38.26142 | -112.98572 | 35163 ft | 481 kts | 166° |
| 2026-05-07 01:10 | 38.19596 | -112.96749 | 35136 ft | 481 kts | 166° |
| 2026-05-07 01:10 | 38.13047 | -112.94946 | 35121 ft | 481 kts | 166° |
| 2026-05-07 01:11 | 38.06536 | -112.93163 | 35093 ft | 482 kts | 166° |
| 2026-05-07 01:11 | 37.99981 | -112.91362 | 35092 ft | 482 kts | 166° |
| 2026-05-07 01:12 | 37.93415 | -112.89556 | 35128 ft | 482 kts | 166° |
| 2026-05-07 01:12 | 37.86869 | -112.87757 | 35146 ft | 481 kts | 166° |
| 2026-05-07 01:13 | 37.80324 | -112.85967 | 35169 ft | 481 kts | 166° |
| 2026-05-07 01:13 | 37.73780 | -112.84182 | 35155 ft | 481 kts | 166° |
| 2026-05-07 01:14 | 37.67248 | -112.82397 | 35155 ft | 480 kts | 166° |
| 2026-05-07 01:14 | 37.60719 | -112.80619 | 35137 ft | 479 kts | 166° |
| 2026-05-07 01:15 | 37.54239 | -112.78860 | 35109 ft | 479 kts | 166° |
| 2026-05-07 01:15 | 37.47708 | -112.77087 | 35056 ft | 480 kts | 166° |
| 2026-05-07 01:16 | 37.41171 | -112.75324 | 35035 ft | 481 kts | 166° |
| 2026-05-07 01:16 | 37.34621 | -112.73552 | 35021 ft | 481 kts | 166° |
| 2026-05-07 01:17 | 37.28079 | -112.71782 | 35000 ft | 481 kts | 165° |
| 2026-05-07 01:17 | 37.21530 | -112.70013 | 34995 ft | 481 kts | 165° |
| 2026-05-07 01:18 | 37.14983 | -112.68258 | 35005 ft | 481 kts | 165° |
| 2026-05-07 01:18 | 37.08430 | -112.66504 | 35024 ft | 481 kts | 165° |
| 2026-05-07 01:19 | 37.01895 | -112.64750 | 35031 ft | 480 kts | 165° |
| 2026-05-07 01:19 | 36.95410 | -112.63011 | 35025 ft | 479 kts | 165° |
| 2026-05-07 01:20 | 36.88884 | -112.61272 | 35017 ft | 479 kts | 165° |
| 2026-05-07 01:20 | 36.82371 | -112.59533 | 34992 ft | 478 kts | 165° |
| 2026-05-07 01:21 | 36.75861 | -112.57800 | 35004 ft | 478 kts | 165° |
| 2026-05-07 01:21 | 36.69404 | -112.56097 | 35010 ft | 478 kts | 165° |
| 2026-05-07 01:22 | 36.62908 | -112.54372 | 35014 ft | 477 kts | 165° |
| 2026-05-07 01:22 | 36.56416 | -112.52645 | 35017 ft | 477 kts | 165° |
| 2026-05-07 01:23 | 36.49923 | -112.50933 | 35020 ft | 477 kts | 165° |
| 2026-05-07 01:23 | 36.43476 | -112.49236 | 35024 ft | 476 kts | 165° |
| 2026-05-07 01:24 | 36.36993 | -112.47531 | 35017 ft | 476 kts | 165° |
| 2026-05-07 01:24 | 36.30513 | -112.45828 | 35020 ft | 476 kts | 165° |
| 2026-05-07 01:25 | 36.24028 | -112.44131 | 35038 ft | 476 kts | 165° |
| 2026-05-07 01:25 | 36.17551 | -112.42438 | 35065 ft | 476 kts | 165° |
| 2026-05-07 01:26 | 36.11065 | -112.40754 | 35092 ft | 476 kts | 167° |
| 2026-05-07 01:26 | 36.04426 | -112.40371 | 35109 ft | 481 kts | 182° |
| 2026-05-07 01:27 | 35.97792 | -112.40965 | 35114 ft | 481 kts | 182° |
| 2026-05-07 01:27 | 35.91117 | -112.41556 | 35120 ft | 481 kts | 182° |
| 2026-05-07 01:28 | 35.84446 | -112.42136 | 35023 ft | 481 kts | 182° |
| 2026-05-07 01:28 | 35.77768 | -112.42717 | 35045 ft | 481 kts | 182° |
| 2026-05-07 01:29 | 35.71098 | -112.43297 | 35047 ft | 480 kts | 182° |
| 2026-05-07 01:29 | 35.64435 | -112.43877 | 35041 ft | 480 kts | 182° |
| 2026-05-07 01:30 | 35.57785 | -112.44452 | 35060 ft | 479 kts | 181° |
| 2026-05-07 01:30 | 35.54443 | -112.44738 | 34940 ft | 487 kts | 181° |
| 2026-05-07 01:30 | 35.51043 | -112.45007 | 34417 ft | 490 kts | 178° |
| 2026-05-07 01:30 | 35.47652 | -112.44848 | 33825 ft | 484 kts | 169° |
| 2026-05-07 01:31 | 35.44341 | -112.44234 | 33277 ft | 479 kts | 167° |
| 2026-05-07 01:31 | 35.41061 | -112.43585 | 32740 ft | 476 kts | 167° |
| 2026-05-07 01:31 | 35.37803 | -112.42943 | 32194 ft | 473 kts | 167° |
| 2026-05-07 01:31 | 35.34559 | -112.42305 | 31661 ft | 470 kts | 167° |
| 2026-05-07 01:32 | 35.31340 | -112.41675 | 31133 ft | 467 kts | 167° |
| 2026-05-07 01:32 | 35.28176 | -112.41058 | 30608 ft | 465 kts | 167° |
| 2026-05-07 01:32 | 35.24988 | -112.40435 | 30054 ft | 462 kts | 167° |
| 2026-05-07 01:32 | 35.21829 | -112.39818 | 29502 ft | 458 kts | 167° |
| 2026-05-07 01:33 | 35.18709 | -112.39207 | 29089 ft | 450 kts | 167° |
| 2026-05-07 01:33 | 35.15651 | -112.38581 | 28927 ft | 442 kts | 166° |
| 2026-05-07 01:33 | 35.12628 | -112.37927 | 28571 ft | 440 kts | 166° |
| 2026-05-07 01:33 | 35.09617 | -112.37258 | 28293 ft | 438 kts | 165° |
| 2026-05-07 01:34 | 35.06632 | -112.36589 | 28032 ft | 435 kts | 165° |
| 2026-05-07 01:34 | 35.03662 | -112.35925 | 27767 ft | 433 kts | 166° |
| 2026-05-07 01:34 | 35.00700 | -112.35269 | 27501 ft | 431 kts | 166° |
| 2026-05-07 01:34 | 34.97756 | -112.34625 | 27260 ft | 429 kts | 166° |
| 2026-05-07 01:35 | 34.94818 | -112.33992 | 27015 ft | 427 kts | 166° |
| 2026-05-07 01:35 | 34.91898 | -112.33370 | 26775 ft | 425 kts | 166° |
| 2026-05-07 01:35 | 34.88989 | -112.32750 | 26530 ft | 424 kts | 166° |
| 2026-05-07 01:35 | 34.86091 | -112.32128 | 26300 ft | 422 kts | 166° |
| 2026-05-07 01:36 | 34.83211 | -112.31501 | 26068 ft | 419 kts | 166° |
| 2026-05-07 01:36 | 34.80341 | -112.30869 | 25839 ft | 418 kts | 166° |
| 2026-05-07 01:36 | 34.77488 | -112.30236 | 25604 ft | 416 kts | 166° |
| 2026-05-07 01:36 | 34.74646 | -112.29604 | 25372 ft | 415 kts | 166° |
| 2026-05-07 01:37 | 34.71812 | -112.28978 | 25144 ft | 413 kts | 166° |
| 2026-05-07 01:37 | 34.68989 | -112.28358 | 24912 ft | 412 kts | 166° |
| 2026-05-07 01:37 | 34.66170 | -112.27739 | 24678 ft | 410 kts | 166° |
| 2026-05-07 01:37 | 34.63364 | -112.27124 | 24444 ft | 408 kts | 166° |
| 2026-05-07 01:38 | 34.60573 | -112.26513 | 24205 ft | 406 kts | 166° |
| 2026-05-07 01:38 | 34.57835 | -112.25912 | 23776 ft | 405 kts | 166° |
| 2026-05-07 01:38 | 34.55069 | -112.25307 | 23204 ft | 403 kts | 166° |
| 2026-05-07 01:38 | 34.52319 | -112.24706 | 22691 ft | 400 kts | 166° |
| 2026-05-07 01:39 | 34.49591 | -112.24108 | 22174 ft | 397 kts | 166° |
| 2026-05-07 01:39 | 34.46883 | -112.23516 | 21677 ft | 394 kts | 166° |
| 2026-05-07 01:39 | 34.44189 | -112.22926 | 21111 ft | 392 kts | 166° |
| 2026-05-07 01:39 | 34.41518 | -112.22291 | 20625 ft | 390 kts | 165° |
| 2026-05-07 01:40 | 34.39761 | -112.21842 | 20337 ft | 387 kts | 165° |
| 2026-05-07 01:40 | 34.37141 | -112.21144 | 19841 ft | 385 kts | 164° |
| 2026-05-07 01:40 | 34.34540 | -112.20440 | 19448 ft | 381 kts | 165° |
| 2026-05-07 01:40 | 34.31950 | -112.19744 | 18977 ft | 379 kts | 165° |
| 2026-05-07 01:41 | 34.29385 | -112.19066 | 18579 ft | 376 kts | 165° |
| 2026-05-07 01:41 | 34.26835 | -112.18402 | 18109 ft | 374 kts | 165° |
| 2026-05-07 01:41 | 34.24290 | -112.17744 | 17615 ft | 373 kts | 165° |
| 2026-05-07 01:41 | 34.21758 | -112.17091 | 17147 ft | 370 kts | 165° |
| 2026-05-07 01:42 | 34.19248 | -112.16445 | 16662 ft | 369 kts | 165° |
| 2026-05-07 01:42 | 34.16739 | -112.15801 | 16224 ft | 366 kts | 165° |
| 2026-05-07 01:42 | 34.14260 | -112.15165 | 15797 ft | 363 kts | 165° |
| 2026-05-07 01:42 | 34.11815 | -112.14534 | 15564 ft | 354 kts | 165° |
| 2026-05-07 01:43 | 34.09450 | -112.13926 | 15434 ft | 342 kts | 165° |
| 2026-05-07 01:43 | 34.07192 | -112.13142 | 15144 ft | 334 kts | 158° |
| 2026-05-07 01:43 | 34.05011 | -112.12250 | 14662 ft | 329 kts | 159° |
| 2026-05-07 01:43 | 34.02854 | -112.11366 | 14172 ft | 325 kts | 159° |
| 2026-05-07 01:44 | 34.00728 | -112.10494 | 13751 ft | 321 kts | 159° |
| 2026-05-07 01:44 | 33.98613 | -112.09630 | 13329 ft | 320 kts | 159° |
| 2026-05-07 01:44 | 33.96509 | -112.08772 | 12943 ft | 319 kts | 159° |
| 2026-05-07 01:44 | 33.94412 | -112.07922 | 12559 ft | 318 kts | 159° |
| 2026-05-07 01:45 | 33.92320 | -112.07077 | 12179 ft | 317 kts | 159° |
| 2026-05-07 01:45 | 33.90237 | -112.06236 | 11802 ft | 315 kts | 159° |
| 2026-05-07 01:45 | 33.88160 | -112.05395 | 11425 ft | 315 kts | 159° |
| 2026-05-07 01:45 | 33.86089 | -112.04557 | 11048 ft | 314 kts | 159° |
| 2026-05-07 01:46 | 33.84021 | -112.03718 | 10669 ft | 313 kts | 159° |
| 2026-05-07 01:46 | 33.81966 | -112.02881 | 10296 ft | 312 kts | 159° |
| 2026-05-07 01:46 | 33.79912 | -112.02043 | 9917 ft | 311 kts | 159° |
| 2026-05-07 01:46 | 33.77891 | -112.01221 | 9525 ft | 310 kts | 160° |
| 2026-05-07 01:47 | 33.75852 | -112.00395 | 9150 ft | 308 kts | 160° |
| 2026-05-07 01:47 | 33.73830 | -111.99578 | 8998 ft | 305 kts | 160° |
| 2026-05-07 01:47 | 33.71820 | -111.98765 | 8930 ft | 304 kts | 160° |
| 2026-05-07 01:47 | 33.69819 | -111.97957 | 8870 ft | 303 kts | 160° |
| 2026-05-07 01:48 | 33.67813 | -111.97148 | 8739 ft | 296 kts | 160° |
| 2026-05-07 01:48 | 33.65925 | -111.96387 | 8612 ft | 285 kts | 160° |
| 2026-05-07 01:48 | 33.64076 | -111.95641 | 8487 ft | 278 kts | 160° |
| 2026-05-07 01:48 | 33.62244 | -111.94901 | 8329 ft | 277 kts | 160° |
| 2026-05-07 01:49 | 33.60417 | -111.94163 | 8002 ft | 276 kts | 160° |
| 2026-05-07 01:49 | 33.58603 | -111.93431 | 7640 ft | 275 kts | 160° |
| 2026-05-07 01:49 | 33.56790 | -111.92699 | 7289 ft | 274 kts | 160° |
| 2026-05-07 01:49 | 33.55020 | -111.91921 | 7082 ft | 267 kts | 151° |
| 2026-05-07 01:50 | 33.53632 | -111.90554 | 7018 ft | 256 kts | 124° |
| 2026-05-07 01:50 | 33.52853 | -111.88658 | 6852 ft | 252 kts | 101° |
| 2026-05-07 01:50 | 33.52709 | -111.86564 | 6315 ft | 255 kts | 88° |
| 2026-05-07 01:50 | 33.52697 | -111.84431 | 5858 ft | 256 kts | 88° |
| 2026-05-07 01:51 | 33.52729 | -111.82330 | 5595 ft | 247 kts | 88° |
| 2026-05-07 01:51 | 33.52785 | -111.80288 | 5530 ft | 245 kts | 88° |
| 2026-05-07 01:51 | 33.52773 | -111.78257 | 5474 ft | 244 kts | 101° |
| 2026-05-07 01:51 | 33.52078 | -111.76438 | 5383 ft | 242 kts | 131° |
| 2026-05-07 01:52 | 33.50730 | -111.75327 | 5167 ft | 235 kts | 165° |
| 2026-05-07 01:52 | 33.49136 | -111.75180 | 5009 ft | 229 kts | 186° |
| 2026-05-07 01:52 | 33.47549 | -111.75382 | 4820 ft | 229 kts | 189° |
| 2026-05-07 01:52 | 33.46033 | -111.75883 | 4702 ft | 226 kts | 208° |
| 2026-05-07 01:53 | 33.44831 | -111.77055 | 4572 ft | 223 kts | 232° |
| 2026-05-07 01:53 | 33.44145 | -111.78695 | 4373 ft | 221 kts | 256° |
| 2026-05-07 01:53 | 33.44033 | -111.80453 | 4123 ft | 204 kts | 270° |
| 2026-05-07 01:53 | 33.44041 | -111.82090 | 3875 ft | 191 kts | 270° |
| 2026-05-07 01:54 | 33.44048 | -111.83631 | 3632 ft | 179 kts | 270° |
| 2026-05-07 01:54 | 33.44052 | -111.85086 | 3406 ft | 172 kts | 270° |
| 2026-05-07 01:54 | 33.44056 | -111.86488 | 3215 ft | 165 kts | 269° |
| 2026-05-07 01:54 | 33.44059 | -111.87851 | 2973 ft | 163 kts | 271° |
| 2026-05-07 01:55 | 33.44063 | -111.89209 | 2769 ft | 163 kts | 270° |
| 2026-05-07 01:55 | 33.44066 | -111.90539 | 2558 ft | 152 kts | 269° |
| 2026-05-07 01:55 | 33.44065 | -111.91777 | 2360 ft | 147 kts | 270° |
| 2026-05-07 01:55 | 33.44065 | -111.92987 | 2159 ft | 143 kts | 270° |
| 2026-05-07 01:56 | 33.44071 | -111.94177 | 2016 ft | 143 kts | 272° |
| 2026-05-07 01:56 | 33.44071 | -111.95370 | 1869 ft | 142 kts | 272° |
| 2026-05-07 01:56 | 33.44089 | -111.96541 | 1663 ft | 143 kts | 271° |
| 2026-05-07 01:56 | 33.44068 | -111.97741 | 1429 ft | 143 kts | 273° |
| 2026-05-07 01:57 | 33.44087 | -111.98915 | 1238 ft | 140 kts | 269° |
| 2026-05-07 01:57 | 33.44083 | -112.00052 | 1131 ft | 127 kts | 269° |
| 2026-05-07 01:57 | 33.44084 | -112.00931 | 1124 ft | 78 kts | 270° |
| 2026-05-07 01:57 | 33.44084 | -112.01386 | 1127 ft | 38 kts | 270° |
| 2026-05-07 01:58 | 33.44077 | -112.01632 | 1118 ft | 24 kts | 253° |
| 2026-05-07 01:58 | 33.43976 | -112.01665 | 1120 ft | 10 kts | 112° |
| 2026-05-07 01:58 | 33.43975 | -112.01599 | 1119 ft | 8 kts | 91° |
| 2026-05-07 01:58 | 33.43975 | -112.01528 | 1119 ft | 10 kts | 89° |
| 2026-05-07 01:59 | 33.43975 | -112.01395 | 1119 ft | 21 kts | 90° |
| 2026-05-07 01:59 | 33.43975 | -112.01193 | 1122 ft | 25 kts | 90° |
| 2026-05-07 01:59 | 33.43974 | -112.00986 | 1119 ft | 25 kts | 90° |
| 2026-05-07 01:59 | 33.43974 | -112.00784 | 1118 ft | 24 kts | 90° |
| 2026-05-07 02:00 | 33.43974 | -112.00589 | 1124 ft | 23 kts | 90° |
| 2026-05-07 02:00 | 33.43967 | -112.00411 | 1124 ft | 16 kts | 108° |
| 2026-05-07 02:00 | 33.43879 | -112.00380 | 1120 ft | 17 kts | 180° |
| 2026-05-07 02:00 | 33.43722 | -112.00381 | 1120 ft | 27 kts | 180° |
| 2026-05-07 02:01 | 33.43537 | -112.00381 | 1120 ft | 26 kts | 179° |
| 2026-05-07 02:01 | 33.43364 | -112.00380 | 1120 ft | 20 kts | 180° |
| 2026-05-07 02:01 | 33.43284 | -112.00435 | 1118 ft | 13 kts | 262° |
| 2026-05-07 02:01 | 33.43288 | -112.00541 | 1120 ft | 13 kts | 270° |
| 2026-05-07 02:02 | 33.43288 | -112.00692 | 1117 ft | 22 kts | 270° |
| 2026-05-07 02:02 | 33.43288 | -112.00878 | 1117 ft | 22 kts | 270° |
| 2026-05-07 02:02 | 33.43288 | -112.01064 | 1117 ft | 22 kts | 270° |
| 2026-05-07 02:02 | 33.43291 | -112.01239 | 1115 ft | 13 kts | 288° |
| 2026-05-07 02:03 | 33.43349 | -112.01252 | 1122 ft | 8 kts | 360° |
| 2026-05-07 02:03 | 33.43400 | -112.01251 | 1119 ft | 6 kts | 11° |
| 2026-05-07 02:03 | 33.43415 | -112.01221 | 1123 ft | 0 kts | 84° |
| 2026-05-07 02:03 | 33.43414 | -112.01218 | 1123 ft | 1 kts | 93° |